BITF weather

CLOSED Tálknafjörður Airport
Tálknafjörður, Westfjords, Iceland

Public forecast

Using degrees Celsius for public forecast. Weather courtesy of forecast.io.

Closest aviation weather report (METAR) to Tálknafjörður Airport

Report is more than 6 hours old.

Closest report is Bildudalur Airport, 11.6 nm (21.4 km) E. Retrieved 2019/10/17 15:45 UTC (11 hours ago):

BIBD 171545Z 04011KT CAVOK 07/M01 Q1013

Closest aviation forecast (TAF) to Tálknafjörður Airport

Closest forecast is Reykjavik Airport, 106.7 nm (197.6 km) SSE. Retrieved 2019-10-18 03:21 UTC (0 seconds ago):

TAF BIRK 180119Z 1803/1903 09005KT CAVOK TX07/1815Z TN02/1809Z BECMG 1815/1817 9999 -SHRA BKN025